sensor_id;sensor_type;location;lat;lon;timestamp;pressure;altitude;pressure_sealevel;temperature;humidity
43155;BME280;34212;51.018;13.586;2023-06-10T00:02:07;97694.84;;;20.85;55.21
43155;BME280;34212;51.018;13.586;2023-06-10T00:07:09;97698.78;;;20.77;55.60
43155;BME280;34212;51.018;13.586;2023-06-10T00:12:11;97700.63;;;20.72;55.55
43155;BME280;34212;51.018;13.586;2023-06-10T00:17:12;97711.69;;;20.70;55.53
43155;BME280;34212;51.018;13.586;2023-06-10T00:22:16;97709.47;;;20.67;55.95
43155;BME280;34212;51.018;13.586;2023-06-10T00:27:18;97707.75;;;20.61;56.28
43155;BME280;34212;51.018;13.586;2023-06-10T00:32:20;97711.22;;;20.57;56.39
43155;BME280;34212;51.018;13.586;2023-06-10T00:37:21;97712.03;;;20.57;56.51
43155;BME280;34212;51.018;13.586;2023-06-10T00:42:23;97704.97;;;20.56;56.05
43155;BME280;34212;51.018;13.586;2023-06-10T00:47:26;97710.88;;;20.53;56.33
43155;BME280;34212;51.018;13.586;2023-06-10T00:52:28;97707.22;;;20.47;56.70
43155;BME280;34212;51.018;13.586;2023-06-10T00:57:31;97724.19;;;20.43;57.34
43155;BME280;34212;51.018;13.586;2023-06-10T01:02:34;97721.66;;;20.36;57.73
43155;BME280;34212;51.018;13.586;2023-06-10T01:12:49;97733.03;;;20.21;58.33
43155;BME280;34212;51.018;13.586;2023-06-10T01:17:59;97756.16;;;20.12;58.31
43155;BME280;34212;51.018;13.586;2023-06-10T01:23:01;97755.16;;;20.01;58.29
43155;BME280;34212;51.018;13.586;2023-06-10T01:33:35;97744.63;;;19.88;58.68
43155;BME280;34212;51.018;13.586;2023-06-10T01:38:41;97758.84;;;19.83;58.55
43155;BME280;34212;51.018;13.586;2023-06-10T01:43:44;97751.94;;;19.76;58.67
43155;BME280;34212;51.018;13.586;2023-06-10T01:48:47;97758.31;;;19.70;58.46
43155;BME280;34212;51.018;13.586;2023-06-10T01:53:49;97761.13;;;19.63;58.09
43155;BME280;34212;51.018;13.586;2023-06-10T01:58:51;97768.53;;;19.56;58.17
43155;BME280;34212;51.018;13.586;2023-06-10T02:03:56;97768.66;;;19.49;58.63
43155;BME280;34212;51.018;13.586;2023-06-10T02:08:58;97774.81;;;19.45;58.89
43155;BME280;34212;51.018;13.586;2023-06-10T02:14:02;97781.72;;;19.41;59.03
43155;BME280;34212;51.018;13.586;2023-06-10T02:19:04;97781.38;;;19.37;59.15
43155;BME280;34212;51.018;13.586;2023-06-10T02:24:08;97787.53;;;19.32;59.31
43155;BME280;34212;51.018;13.586;2023-06-10T02:29:10;97784.94;;;19.26;59.44
43155;BME280;34212;51.018;13.586;2023-06-10T02:34:12;97785.06;;;19.19;59.27
43155;BME280;34212;51.018;13.586;2023-06-10T02:39:13;97794.34;;;19.11;59.45
43155;BME280;34212;51.018;13.586;2023-06-10T02:44:18;97790.94;;;19.04;59.77
43155;BME280;34212;51.018;13.586;2023-06-10T02:49:20;97789.97;;;18.99;59.72
43155;BME280;34212;51.018;13.586;2023-06-10T02:54:23;97784.69;;;18.92;59.90
43155;BME280;34212;51.018;13.586;2023-06-10T02:59:27;97785.63;;;18.86;60.50
43155;BME280;34212;51.018;13.586;2023-06-10T03:04:30;97783.63;;;18.81;60.26
43155;BME280;34212;51.018;13.586;2023-06-10T03:09:38;97784.53;;;18.75;59.97
43155;BME280;34212;51.018;13.586;2023-06-10T03:14:42;97790.03;;;18.68;60.31
43155;BME280;34212;51.018;13.586;2023-06-10T03:19:44;97782.28;;;18.60;59.90
43155;BME280;34212;51.018;13.586;2023-06-10T03:24:46;97785.31;;;18.52;59.92
43155;BME280;34212;51.018;13.586;2023-06-10T03:29:52;97784.59;;;18.45;60.24
43155;BME280;34212;51.018;13.586;2023-06-10T03:34:54;97801.47;;;18.40;60.32
43155;BME280;34212;51.018;13.586;2023-06-10T03:40:01;97797.59;;;18.36;61.10
43155;BME280;34212;51.018;13.586;2023-06-10T03:45:06;97793.25;;;18.35;61.28
43155;BME280;34212;51.018;13.586;2023-06-10T03:50:10;97806.75;;;18.35;61.37
43155;BME280;34212;51.018;13.586;2023-06-10T03:55:14;97801.81;;;18.32;61.50
43155;BME280;34212;51.018;13.586;2023-06-10T04:00:18;97810.47;;;18.34;61.74
43155;BME280;34212;51.018;13.586;2023-06-10T04:05:22;97817.53;;;18.35;62.06
43155;BME280;34212;51.018;13.586;2023-06-10T04:10:26;97815.06;;;18.34;62.30
43155;BME280;34212;51.018;13.586;2023-06-10T04:15:28;97817.91;;;18.39;62.58
43155;BME280;34212;51.018;13.586;2023-06-10T04:20:31;97813.94;;;18.41;62.66
43155;BME280;34212;51.018;13.586;2023-06-10T04:25:34;97821.56;;;18.44;62.73
43155;BME280;34212;51.018;13.586;2023-06-10T04:30:37;97824.38;;;18.50;62.83
43155;BME280;34212;51.018;13.586;2023-06-10T04:35:39;97807.72;;;18.53;62.34
43155;BME280;34212;51.018;13.586;2023-06-10T04:40:43;97817.59;;;18.59;62.65
43155;BME280;34212;51.018;13.586;2023-06-10T04:45:46;97819.84;;;18.62;62.86
43155;BME280;34212;51.018;13.586;2023-06-10T04:50:48;97821.50;;;18.63;63.59
43155;BME280;34212;51.018;13.586;2023-06-10T04:55:50;97819.97;;;18.67;63.80
43155;BME280;34212;51.018;13.586;2023-06-10T05:00:51;97827.38;;;18.72;64.21
43155;BME280;34212;51.018;13.586;2023-06-10T05:05:54;97815.22;;;18.81;64.42
43155;BME280;34212;51.018;13.586;2023-06-10T05:10:56;97817.72;;;18.94;64.64
43155;BME280;34212;51.018;13.586;2023-06-10T05:15:57;97827.22;;;19.08;64.46
43155;BME280;34212;51.018;13.586;2023-06-10T05:20:59;97824.53;;;19.20;64.20
43155;BME280;34212;51.018;13.586;2023-06-10T05:26:01;97821.00;;;19.31;64.00
43155;BME280;34212;51.018;13.586;2023-06-10T05:31:02;97834.78;;;19.42;64.00
43155;BME280;34212;51.018;13.586;2023-06-10T05:36:04;97833.34;;;19.51;63.62
43155;BME280;34212;51.018;13.586;2023-06-10T05:41:06;97836.28;;;19.61;63.55
43155;BME280;34212;51.018;13.586;2023-06-10T05:46:11;97840.78;;;19.67;63.72
43155;BME280;34212;51.018;13.586;2023-06-10T05:51:12;97845.72;;;19.70;63.60
43155;BME280;34212;51.018;13.586;2023-06-10T05:56:14;97845.44;;;19.83;63.60
43155;BME280;34212;51.018;13.586;2023-06-10T06:01:16;97844.34;;;19.96;63.14
43155;BME280;34212;51.018;13.586;2023-06-10T06:06:18;97838.44;;;20.11;62.84
43155;BME280;34212;51.018;13.586;2023-06-10T06:11:21;97846.28;;;20.24;62.62
43155;BME280;34212;51.018;13.586;2023-06-10T06:16:23;97850.56;;;20.37;62.63
43155;BME280;34212;51.018;13.586;2023-06-10T06:21:25;97847.28;;;20.47;62.54
43155;BME280;34212;51.018;13.586;2023-06-10T06:26:26;97847.69;;;20.56;62.25
43155;BME280;34212;51.018;13.586;2023-06-10T06:31:28;97855.78;;;20.67;61.83
43155;BME280;34212;51.018;13.586;2023-06-10T06:36:30;97861.97;;;20.80;62.01
43155;BME280;34212;51.018;13.586;2023-06-10T06:41:31;97871.44;;;20.94;62.04
43155;BME280;34212;51.018;13.586;2023-06-10T06:46:33;97868.91;;;21.04;62.01
43155;BME280;34212;51.018;13.586;2023-06-10T06:51:35;97876.13;;;21.15;61.80
43155;BME280;34212;51.018;13.586;2023-06-10T06:56:36;97881.47;;;21.27;61.88
43155;BME280;34212;51.018;13.586;2023-06-10T07:01:39;97887.09;;;21.37;61.73
43155;BME280;34212;51.018;13.586;2023-06-10T07:06:41;97892.84;;;21.41;62.07
43155;BME280;34212;51.018;13.586;2023-06-10T07:11:43;97901.03;;;21.46;61.74
43155;BME280;34212;51.018;13.586;2023-06-10T07:16:44;97904.50;;;21.58;62.15
43155;BME280;34212;51.018;13.586;2023-06-10T07:21:47;97907.94;;;21.71;61.80
43155;BME280;34212;51.018;13.586;2023-06-10T07:26:50;97909.31;;;21.90;61.35
43155;BME280;34212;51.018;13.586;2023-06-10T07:31:52;97909.84;;;22.09;61.29
43155;BME280;34212;51.018;13.586;2023-06-10T07:36:54;97925.94;;;22.16;60.78
43155;BME280;34212;51.018;13.586;2023-06-10T07:41:56;97918.53;;;22.28;60.93
43155;BME280;34212;51.018;13.586;2023-06-10T07:46:59;97924.69;;;22.45;60.47
43155;BME280;34212;51.018;13.586;2023-06-10T07:52:01;97928.81;;;22.48;59.83
43155;BME280;34212;51.018;13.586;2023-06-10T07:57:03;97921.25;;;22.50;60.05
43155;BME280;34212;51.018;13.586;2023-06-10T08:02:05;97928.00;;;22.47;60.14
43155;BME280;34212;51.018;13.586;2023-06-10T08:07:07;97931.59;;;22.53;60.21
43155;BME280;34212;51.018;13.586;2023-06-10T08:12:08;97941.19;;;22.60;60.10
43155;BME280;34212;51.018;13.586;2023-06-10T08:17:14;97935.31;;;22.69;60.06
43155;BME280;34212;51.018;13.586;2023-06-10T08:22:16;97929.97;;;22.79;60.24
43155;BME280;34212;51.018;13.586;2023-06-10T08:27:17;97949.00;;;22.79;60.44
43155;BME280;34212;51.018;13.586;2023-06-10T08:32:19;97953.88;;;22.77;60.89
43155;BME280;34212;51.018;13.586;2023-06-10T08:37:21;97945.03;;;22.87;61.08
43155;BME280;34212;51.018;13.586;2023-06-10T08:47:50;97941.44;;;23.08;60.69
43155;BME280;34212;51.018;13.586;2023-06-10T08:52:57;97942.97;;;23.26;59.74
43155;BME280;34212;51.018;13.586;2023-06-10T08:58:00;97941.47;;;23.40;59.66
43155;BME280;34212;51.018;13.586;2023-06-10T09:03:04;97942.66;;;23.55;59.28
43155;BME280;34212;51.018;13.586;2023-06-10T09:08:06;97937.22;;;23.49;58.75
43155;BME280;34212;51.018;13.586;2023-06-10T09:13:09;97940.09;;;23.70;59.42
43155;BME280;34212;51.018;13.586;2023-06-10T09:18:11;97941.13;;;24.01;58.88
43155;BME280;34212;51.018;13.586;2023-06-10T09:23:15;97933.88;;;24.22;57.74
43155;BME280;34212;51.018;13.586;2023-06-10T09:28:17;97938.31;;;24.33;57.51
43155;BME280;34212;51.018;13.586;2023-06-10T09:33:24;97927.72;;;24.42;57.09
43155;BME280;34212;51.018;13.586;2023-06-10T09:38:33;97919.84;;;24.46;56.82
43155;BME280;34212;51.018;13.586;2023-06-10T09:43:42;97929.69;;;24.52;56.44
43155;BME280;34212;51.018;13.586;2023-06-10T09:48:47;97936.53;;;24.59;56.80
43155;BME280;34212;51.018;13.586;2023-06-10T09:53:51;97935.44;;;24.65;57.04
43155;BME280;34212;51.018;13.586;2023-06-10T09:58:53;97936.84;;;24.78;56.58
43155;BME280;34212;51.018;13.586;2023-06-10T10:03:55;97946.69;;;24.95;56.33
43155;BME280;34212;51.018;13.586;2023-06-10T10:08:56;97938.03;;;25.08;56.47
43155;BME280;34212;51.018;13.586;2023-06-10T10:13:58;97940.22;;;25.16;56.18
43155;BME280;34212;51.018;13.586;2023-06-10T10:19:05;97938.34;;;25.27;55.77
43155;BME280;34212;51.018;13.586;2023-06-10T10:24:14;97938.63;;;25.46;54.26
43155;BME280;34212;51.018;13.586;2023-06-10T10:29:25;97938.06;;;25.59;53.71
43155;BME280;34212;51.018;13.586;2023-06-10T10:34:50;97931.22;;;25.72;53.91
43155;BME280;34212;51.018;13.586;2023-06-10T10:39:55;97941.31;;;25.92;53.44
43155;BME280;34212;51.018;13.586;2023-06-10T10:44:58;97929.06;;;25.84;52.50
43155;BME280;34212;51.018;13.586;2023-06-10T10:50:00;97944.31;;;25.70;53.54
43155;BME280;34212;51.018;13.586;2023-06-10T10:55:12;97930.94;;;25.63;54.07
43155;BME280;34212;51.018;13.586;2023-06-10T11:00:26;97928.78;;;25.70;53.20
43155;BME280;34212;51.018;13.586;2023-06-10T11:05:47;97931.22;;;25.72;53.44
43155;BME280;34212;51.018;13.586;2023-06-10T11:10:53;97927.38;;;25.73;52.88
43155;BME280;34212;51.018;13.586;2023-06-10T11:15:57;97921.13;;;25.72;52.85
43155;BME280;34212;51.018;13.586;2023-06-10T11:21:03;97920.00;;;25.94;52.66
43155;BME280;34212;51.018;13.586;2023-06-10T11:31:49;97889.00;;;26.29;51.81
43155;BME280;34212;51.018;13.586;2023-06-10T11:36:51;97888.69;;;26.46;50.54
43155;BME280;34212;51.018;13.586;2023-06-10T11:41:53;97882.03;;;26.67;50.57
43155;BME280;34212;51.018;13.586;2023-06-10T11:46:56;97881.66;;;26.84;49.04
43155;BME280;34212;51.018;13.586;2023-06-10T11:51:57;97883.22;;;26.95;49.38
43155;BME280;34212;51.018;13.586;2023-06-10T11:56:59;97881.91;;;26.88;48.82
43155;BME280;34212;51.018;13.586;2023-06-10T12:02:04;97885.50;;;26.83;47.68
43155;BME280;34212;51.018;13.586;2023-06-10T12:07:06;97885.72;;;26.92;47.08
43155;BME280;34212;51.018;13.586;2023-06-10T12:12:08;97873.13;;;26.91;47.01
43155;BME280;34212;51.018;13.586;2023-06-10T12:17:11;97862.72;;;26.93;46.88
43155;BME280;34212;51.018;13.586;2023-06-10T12:22:13;97858.75;;;27.14;47.01
43155;BME280;34212;51.018;13.586;2023-06-10T12:27:18;97860.56;;;27.29;45.77
43155;BME280;34212;51.018;13.586;2023-06-10T12:32:19;97839.03;;;27.12;44.37
43155;BME280;34212;51.018;13.586;2023-06-10T12:37:24;97846.78;;;27.00;44.94
43155;BME280;34212;51.018;13.586;2023-06-10T12:42:25;97852.00;;;27.02;44.62
43155;BME280;34212;51.018;13.586;2023-06-10T12:47:34;97831.69;;;27.08;44.07
43155;BME280;34212;51.018;13.586;2023-06-10T12:52:36;97851.84;;;27.22;43.21
43155;BME280;34212;51.018;13.586;2023-06-10T12:57:47;97843.41;;;27.48;42.36
43155;BME280;34212;51.018;13.586;2023-06-10T13:02:49;97847.31;;;28.62;41.01
43155;BME280;34212;51.018;13.586;2023-06-10T13:07:52;97853.94;;;30.47;37.32
43155;BME280;34212;51.018;13.586;2023-06-10T13:12:53;97842.38;;;31.85;34.89
43155;BME280;34212;51.018;13.586;2023-06-10T13:17:57;97841.38;;;32.20;34.20
43155;BME280;34212;51.018;13.586;2023-06-10T13:22:59;97850.47;;;31.81;35.20
43155;BME280;34212;51.018;13.586;2023-06-10T13:28:01;97853.72;;;31.29;35.92
43155;BME280;34212;51.018;13.586;2023-06-10T13:33:03;97852.59;;;30.72;35.95
43155;BME280;34212;51.018;13.586;2023-06-10T13:38:05;97852.66;;;30.17;36.59
43155;BME280;34212;51.018;13.586;2023-06-10T13:43:08;97838.59;;;29.77;36.74
43155;BME280;34212;51.018;13.586;2023-06-10T13:48:11;97848.91;;;29.52;37.97
43155;BME280;34212;51.018;13.586;2023-06-10T13:53:12;97847.72;;;29.26;37.19
43155;BME280;34212;51.018;13.586;2023-06-10T13:58:14;97844.44;;;29.10;37.17
43155;BME280;34212;51.018;13.586;2023-06-10T14:03:15;97837.50;;;28.93;36.75
43155;BME280;34212;51.018;13.586;2023-06-10T14:08:17;97839.88;;;28.81;36.18
43155;BME280;34212;51.018;13.586;2023-06-10T14:13:19;97840.47;;;28.78;35.77
43155;BME280;34212;51.018;13.586;2023-06-10T14:18:20;97834.56;;;28.71;35.92
43155;BME280;34212;51.018;13.586;2023-06-10T14:23:22;97835.00;;;28.59;35.67
43155;BME280;34212;51.018;13.586;2023-06-10T14:28:24;97831.50;;;28.53;35.60
43155;BME280;34212;51.018;13.586;2023-06-10T14:33:27;97828.31;;;28.46;35.51
43155;BME280;34212;51.018;13.586;2023-06-10T14:38:28;97832.53;;;28.39;35.58
43155;BME280;34212;51.018;13.586;2023-06-10T14:43:30;97827.09;;;28.33;35.07
43155;BME280;34212;51.018;13.586;2023-06-10T14:48:31;97831.22;;;28.31;34.81
43155;BME280;34212;51.018;13.586;2023-06-10T14:53:33;97832.94;;;28.27;33.80
43155;BME280;34212;51.018;13.586;2023-06-10T14:58:34;97831.91;;;28.23;33.02
43155;BME280;34212;51.018;13.586;2023-06-10T15:03:36;97837.41;;;28.23;33.00
43155;BME280;34212;51.018;13.586;2023-06-10T15:08:38;97842.88;;;28.23;33.51
43155;BME280;34212;51.018;13.586;2023-06-10T15:13:39;97839.88;;;28.19;33.27
43155;BME280;34212;51.018;13.586;2023-06-10T15:18:41;97843.16;;;28.21;33.61
43155;BME280;34212;51.018;13.586;2023-06-10T15:23:42;97834.66;;;28.23;33.36
43155;BME280;34212;51.018;13.586;2023-06-10T15:28:44;97835.16;;;28.25;33.49
43155;BME280;34212;51.018;13.586;2023-06-10T15:33:45;97829.16;;;28.23;33.66
43155;BME280;34212;51.018;13.586;2023-06-10T15:38:48;97837.41;;;28.23;34.32
43155;BME280;34212;51.018;13.586;2023-06-10T15:43:49;97832.50;;;28.20;34.12
43155;BME280;34212;51.018;13.586;2023-06-10T15:48:51;97843.97;;;28.22;34.45
43155;BME280;34212;51.018;13.586;2023-06-10T15:53:54;97831.22;;;28.31;34.80
43155;BME280;34212;51.018;13.586;2023-06-10T15:58:56;97830.47;;;28.49;35.12
43155;BME280;34212;51.018;13.586;2023-06-10T16:03:57;97842.03;;;28.46;34.87
43155;BME280;34212;51.018;13.586;2023-06-10T16:08:59;97850.59;;;28.40;35.67
43155;BME280;34212;51.018;13.586;2023-06-10T16:14:00;97844.78;;;28.65;35.32
43155;BME280;34212;51.018;13.586;2023-06-10T16:19:02;97849.16;;;28.85;34.88
43155;BME280;34212;51.018;13.586;2023-06-10T16:24:04;97849.47;;;29.68;33.57
43155;BME280;34212;51.018;13.586;2023-06-10T16:29:05;97856.00;;;29.72;33.10
43155;BME280;34212;51.018;13.586;2023-06-10T16:34:07;97852.56;;;29.15;33.58
43155;BME280;34212;51.018;13.586;2023-06-10T16:39:08;97857.69;;;28.65;33.35
43155;BME280;34212;51.018;13.586;2023-06-10T16:44:10;97861.94;;;28.57;33.32
43155;BME280;34212;51.018;13.586;2023-06-10T16:49:11;97861.19;;;28.51;33.16
43155;BME280;34212;51.018;13.586;2023-06-10T16:54:13;97872.78;;;28.43;33.17
43155;BME280;34212;51.018;13.586;2023-06-10T16:59:15;97861.03;;;28.38;33.30
43155;BME280;34212;51.018;13.586;2023-06-10T17:04:17;97881.94;;;28.09;34.40
43155;BME280;34212;51.018;13.586;2023-06-10T17:09:18;97876.66;;;28.42;34.44
43155;BME280;34212;51.018;13.586;2023-06-10T17:14:21;97874.31;;;28.54;34.22
43155;BME280;34212;51.018;13.586;2023-06-10T17:19:26;97876.38;;;28.20;34.63
43155;BME280;34212;51.018;13.586;2023-06-10T17:24:28;97879.00;;;27.77;35.05
43155;BME280;34212;51.018;13.586;2023-06-10T17:29:29;97874.38;;;27.43;35.08
43155;BME280;34212;51.018;13.586;2023-06-10T17:34:33;97880.91;;;27.18;35.92
43155;BME280;34212;51.018;13.586;2023-06-10T17:39:41;97887.88;;;26.95;36.35
43155;BME280;34212;51.018;13.586;2023-06-10T17:44:43;97882.00;;;26.72;36.24
43155;BME280;34212;51.018;13.586;2023-06-10T17:49:44;97899.09;;;26.49;36.77
43155;BME280;34212;51.018;13.586;2023-06-10T17:54:46;97904.59;;;26.29;37.09
43155;BME280;34212;51.018;13.586;2023-06-10T17:59:47;97905.75;;;26.12;37.20
43155;BME280;34212;51.018;13.586;2023-06-10T18:04:49;97909.63;;;25.96;37.38
43155;BME280;34212;51.018;13.586;2023-06-10T18:09:51;97905.28;;;25.79;38.13
43155;BME280;34212;51.018;13.586;2023-06-10T18:14:52;97898.75;;;25.65;39.32
43155;BME280;34212;51.018;13.586;2023-06-10T18:19:54;97900.94;;;25.53;38.89
43155;BME280;34212;51.018;13.586;2023-06-10T18:24:59;97888.38;;;25.42;40.38
43155;BME280;34212;51.018;13.586;2023-06-10T18:30:06;97904.75;;;25.31;40.56
43155;BME280;34212;51.018;13.586;2023-06-10T18:35:08;97903.94;;;25.21;40.51
43155;BME280;34212;51.018;13.586;2023-06-10T18:40:11;97911.00;;;25.06;41.38
43155;BME280;34212;51.018;13.586;2023-06-10T18:45:13;97921.88;;;24.91;41.26
43155;BME280;34212;51.018;13.586;2023-06-10T18:50:14;97934.66;;;24.75;41.78
43155;BME280;34212;51.018;13.586;2023-06-10T19:00:44;97941.66;;;24.46;41.73
43155;BME280;34212;51.018;13.586;2023-06-10T19:05:46;97944.28;;;24.30;42.47
43155;BME280;34212;51.018;13.586;2023-06-10T19:10:47;97943.94;;;24.16;42.25
43155;BME280;34212;51.018;13.586;2023-06-10T19:15:49;97959.94;;;24.03;42.75
43155;BME280;34212;51.018;13.586;2023-06-10T19:20:50;97965.56;;;23.91;42.68
43155;BME280;34212;51.018;13.586;2023-06-10T19:25:52;97983.75;;;23.80;42.77
43155;BME280;34212;51.018;13.586;2023-06-10T19:30:54;97971.69;;;23.71;42.78
43155;BME280;34212;51.018;13.586;2023-06-10T19:35:55;97988.47;;;23.63;43.07
43155;BME280;34212;51.018;13.586;2023-06-10T19:40:57;97989.78;;;23.55;43.44
43155;BME280;34212;51.018;13.586;2023-06-10T19:45:58;97987.78;;;23.45;43.11
43155;BME280;34212;51.018;13.586;2023-06-10T19:51:00;97989.31;;;23.36;43.28
43155;BME280;34212;51.018;13.586;2023-06-10T19:56:01;97988.72;;;23.29;43.62
43155;BME280;34212;51.018;13.586;2023-06-10T20:01:03;97990.56;;;23.23;43.83
43155;BME280;34212;51.018;13.586;2023-06-10T20:06:05;97994.81;;;23.14;44.08
43155;BME280;34212;51.018;13.586;2023-06-10T20:11:06;97997.75;;;23.08;44.89
43155;BME280;34212;51.018;13.586;2023-06-10T20:16:09;97994.41;;;23.00;45.01
43155;BME280;34212;51.018;13.586;2023-06-10T20:21:10;98002.78;;;22.94;44.71
43155;BME280;34212;51.018;13.586;2023-06-10T20:26:12;97998.31;;;22.88;45.27
43155;BME280;34212;51.018;13.586;2023-06-10T20:31:14;98015.66;;;22.81;45.38
43155;BME280;34212;51.018;13.586;2023-06-10T20:36:15;98010.66;;;22.73;45.16
43155;BME280;34212;51.018;13.586;2023-06-10T20:41:17;98015.69;;;22.65;45.71
43155;BME280;34212;51.018;13.586;2023-06-10T20:46:19;98024.88;;;22.58;46.03
43155;BME280;34212;51.018;13.586;2023-06-10T20:51:21;98019.88;;;22.50;45.84
43155;BME280;34212;51.018;13.586;2023-06-10T20:56:22;98023.03;;;22.42;46.62
43155;BME280;34212;51.018;13.586;2023-06-10T21:01:24;98028.91;;;22.34;46.23
43155;BME280;34212;51.018;13.586;2023-06-10T21:06:27;98032.84;;;22.26;46.93
43155;BME280;34212;51.018;13.586;2023-06-10T21:11:28;98028.91;;;22.17;46.58
43155;BME280;34212;51.018;13.586;2023-06-10T21:16:30;98044.28;;;22.11;46.83
43155;BME280;34212;51.018;13.586;2023-06-10T21:21:32;98043.13;;;22.07;46.98
43155;BME280;34212;51.018;13.586;2023-06-10T21:26:34;98041.41;;;22.01;46.40
43155;BME280;34212;51.018;13.586;2023-06-10T21:31:37;98048.97;;;21.99;46.15
43155;BME280;34212;51.018;13.586;2023-06-10T21:36:38;98052.69;;;21.93;46.11
43155;BME280;34212;51.018;13.586;2023-06-10T21:41:40;98047.41;;;21.86;46.18
43155;BME280;34212;51.018;13.586;2023-06-10T21:46:42;98058.44;;;21.80;46.18
43155;BME280;34212;51.018;13.586;2023-06-10T21:51:43;98060.25;;;21.74;46.19
43155;BME280;34212;51.018;13.586;2023-06-10T21:56:46;98071.25;;;21.67;45.84
43155;BME280;34212;51.018;13.586;2023-06-10T22:01:49;98063.28;;;21.61;46.01
43155;BME280;34212;51.018;13.586;2023-06-10T22:06:51;98056.59;;;21.52;46.10
43155;BME280;34212;51.018;13.586;2023-06-10T22:11:53;98063.81;;;21.46;45.89
43155;BME280;34212;51.018;13.586;2023-06-10T22:16:54;98077.53;;;21.39;45.79
43155;BME280;34212;51.018;13.586;2023-06-10T22:21:56;98054.88;;;21.34;45.76
43155;BME280;34212;51.018;13.586;2023-06-10T22:26:58;98063.75;;;21.29;45.73
43155;BME280;34212;51.018;13.586;2023-06-10T22:31:59;98063.91;;;21.22;45.97
43155;BME280;34212;51.018;13.586;2023-06-10T22:37:01;98061.91;;;21.18;46.11
43155;BME280;34212;51.018;13.586;2023-06-10T22:42:02;98062.88;;;21.12;46.25
43155;BME280;34212;51.018;13.586;2023-06-10T22:47:06;98058.41;;;21.06;46.27
43155;BME280;34212;51.018;13.586;2023-06-10T22:52:07;98053.41;;;20.97;46.11
43155;BME280;34212;51.018;13.586;2023-06-10T22:57:09;98061.69;;;20.91;46.31
43155;BME280;34212;51.018;13.586;2023-06-10T23:02:11;98056.13;;;20.86;46.51
43155;BME280;34212;51.018;13.586;2023-06-10T23:07:12;98059.00;;;20.79;46.44
43155;BME280;34212;51.018;13.586;2023-06-10T23:12:15;98050.19;;;20.72;46.69
43155;BME280;34212;51.018;13.586;2023-06-10T23:17:17;98062.19;;;20.64;47.06
43155;BME280;34212;51.018;13.586;2023-06-10T23:22:19;98050.91;;;20.56;47.09
43155;BME280;34212;51.018;13.586;2023-06-10T23:27:20;98058.31;;;20.48;46.99
43155;BME280;34212;51.018;13.586;2023-06-10T23:32:22;98061.72;;;20.44;47.16
43155;BME280;34212;51.018;13.586;2023-06-10T23:37:24;98058.31;;;20.37;47.05
43155;BME280;34212;51.018;13.586;2023-06-10T23:42:26;98066.91;;;20.34;46.87
43155;BME280;34212;51.018;13.586;2023-06-10T23:47:28;98060.31;;;20.29;46.44
43155;BME280;34212;51.018;13.586;2023-06-10T23:52:30;98060.78;;;20.26;46.54
43155;BME280;34212;51.018;13.586;2023-06-10T23:57:31;98059.03;;;20.20;46.41
